Terminal Aerodrome Forecast
Issued by NWS Cleveland, OH

Home | Current Version | Previous Version | Text Only | Print | Product List | Glossary On
Versions: 1 2 3 4 5 6 7 8 9 10 11 12 13 14 15 16 17 18 19
380
FTUS41 KCLE 141733
TAFMFD
TAF
KMFD 141733Z 1418/1518 14010KT P6SM SCT080 OVC250
     FM142200 14010KT P6SM FEW025 OVC080
     FM150300 14010KT 5SM -SN SCT008 OVC015
      TEMPO 1506/1510 1 1/2SM -SN BKN004 OVC010
     FM151400 17012KT P6SM VCSH BKN012 OVC020=

USA.gov is the U.S. government's official web portal to all federal, state and local government web resources and services.